Time;durP1;ratioP1;P1;durP2;ratioP2;P2;SDS_P1;SDS_P2;PMS_P1;PMS_P2;Temp;Humidity;BMP_temperature;BMP_pressure;BME280_temperature;BME280_humidity;BME280_pressure;Samples;Min_cycle;Max_cycle;Signal;HPM_P1;HPM_P2
2024/04/19 00:01:54;;;;;;;0.40;0.40;;;;;;;6.05;87.64;96446.44;5339617;26;20986;-61
2024/04/19 00:04:20;;;;;;;0.50;0.50;;;;;;;6.02;87.73;96447.16;5336775;26;20001;-62
2024/04/19 00:06:50;;;;;;;0.43;0.43;;;;;;;5.58;87.23;96376.94;5339084;26;20476;-62
2024/04/19 00:09:16;;;;;;;0.50;0.50;;;;;;;6.00;87.32;96463.19;5338785;26;20385;-61
2024/04/19 00:11:43;;;;;;;0.50;0.50;;;;;;;6.04;88.70;96447.56;5338352;26;20020;-62
2024/04/19 00:14:11;;;;;;;0.50;0.50;;;;;;;5.73;88.67;96396.16;5338376;26;20001;-64
2024/04/19 00:16:37;;;;;;;0.43;0.43;;;;;;;6.10;89.56;96448.91;5338850;26;20016;-60
2024/04/19 00:19:05;;;;;;;0.50;0.50;;;;;;;5.97;90.25;96459.19;5338382;26;20015;-60
2024/04/19 00:21:32;;;;;;;0.50;0.50;;;;;;;6.05;89.89;96457.44;5339018;26;20642;-60
2024/04/19 00:23:59;;;;;;;0.50;0.50;;;;;;;5.99;90.01;96475.34;5338504;26;20018;-60
2024/04/19 00:26:25;;;;;;;0.50;0.50;;;;;;;6.08;89.30;96440.22;5313514;26;20016;-60
2024/04/19 00:28:52;;;;;;;0.50;0.50;;;;;;;6.11;89.38;96456.00;5278902;26;20352;-63
2024/04/19 00:31:19;;;;;;;0.50;0.50;;;;;;;6.05;90.31;96454.69;5302527;27;20352;-62
2024/04/19 00:33:47;;;;;;;0.50;0.50;;;;;;;6.06;88.45;96475.50;5304516;26;20025;-60
2024/04/19 00:36:14;;;;;;;0.50;0.50;;;;;;;5.97;88.20;96445.44;5304981;26;20006;-60
2024/04/19 00:38:41;;;;;;;0.50;0.50;;;;;;;6.04;88.73;96455.81;5304509;26;20350;-60
2024/04/19 00:41:08;;;;;;;0.50;0.50;;;;;;;5.52;88.89;96400.28;5302675;27;20457;-60
2024/04/19 00:43:35;;;;;;;0.50;0.50;;;;;;;5.94;88.94;96439.88;5295863;27;20026;-60
2024/04/19 00:46:04;;;;;;;0.40;0.40;;;;;;;5.73;89.73;96423.63;5268652;27;20014;-60
2024/04/19 00:48:32;;;;;;;0.50;0.50;;;;;;;6.07;88.53;96466.09;5269764;27;20010;-60
2024/04/19 00:51:01;;;;;;;0.50;0.50;;;;;;;5.48;86.79;96367.28;5269612;27;20077;-61
2024/04/19 00:53:31;;;;;;;0.50;0.50;;;;;;;5.94;89.19;96459.13;5293163;26;20006;-60
2024/04/19 00:56:03;;;;;;;0.50;0.50;;;;;;;5.39;89.43;96390.56;5285596;26;20354;-61
2024/04/19 00:58:31;;;;;;;0.50;0.50;;;;;;;5.92;90.22;96458.66;5269973;27;20003;-61
2024/04/19 01:01:05;;;;;;;0.50;0.50;;;;;;;5.73;89.55;96450.28;5269672;27;20018;-61
2024/04/19 01:03:32;;;;;;;0.50;0.50;;;;;;;5.71;89.21;96474.56;5269726;27;20014;-60
2024/04/19 01:05:59;;;;;;;0.50;0.50;;;;;;;5.21;89.52;96379.09;5269857;27;20003;-60
2024/04/19 01:08:27;;;;;;;0.50;0.50;;;;;;;5.77;88.71;96470.44;5268296;26;20425;-61
2024/04/19 01:10:54;;;;;;;0.50;0.50;;;;;;;5.69;90.76;96461.19;5268543;27;20021;-61
2024/04/19 01:13:21;;;;;;;0.45;0.45;;;;;;;5.40;88.95;96417.66;5268135;27;20038;-61
2024/04/19 01:15:48;;;;;;;0.50;0.50;;;;;;;5.14;88.94;96372.63;5270067;27;20038;-61
2024/04/19 01:18:15;;;;;;;0.50;0.50;;;;;;;5.08;88.39;96363.03;5267515;27;20002;-61
2024/04/19 01:20:43;;;;;;;0.50;0.50;;;;;;;5.68;90.04;96461.53;5268130;27;20354;-60
2024/04/19 01:23:13;;;;;;;0.50;0.50;;;;;;;5.30;89.21;96409.13;5268766;27;20475;-62
2024/04/19 01:25:41;;;;;;;0.50;0.50;;;;;;;5.63;89.45;96467.28;5268336;27;20006;-60
2024/04/19 01:28:10;;;;;;;0.40;0.40;;;;;;;5.32;88.71;96450.75;5269169;27;20031;-60
2024/04/19 01:30:44;;;;;;;0.40;0.40;;;;;;;4.60;89.06;96342.13;5269592;27;20021;-60
2024/04/19 01:33:13;;;;;;;0.40;0.40;;;;;;;5.23;88.95;96414.44;5267780;27;20341;-61
2024/04/19 01:35:40;;;;;;;0.50;0.50;;;;;;;5.06;88.82;96409.28;5298559;26;20020;-60
2024/04/19 01:38:07;;;;;;;0.50;0.50;;;;;;;5.39;87.68;96462.72;5301710;27;20017;-60
2024/04/19 01:40:34;;;;;;;0.50;0.50;;;;;;;4.96;87.21;96404.28;5304075;26;20005;-60
2024/04/19 01:43:01;;;;;;;0.50;0.50;;;;;;;5.32;88.02;96472.72;5314306;26;20001;-60
2024/04/19 01:45:28;;;;;;;0.50;0.50;;;;;;;5.37;87.78;96486.22;5304155;26;20006;-60
2024/04/19 01:47:55;;;;;;;0.50;0.50;;;;;;;5.43;87.98;96476.56;5303435;26;19997;-60
2024/04/19 01:50:22;;;;;;;0.50;0.50;;;;;;;5.45;88.97;96477.03;5303404;26;20373;-61
2024/04/19 01:52:49;;;;;;;0.40;0.40;;;;;;;5.38;89.44;96476.81;5303552;27;20041;-60
2024/04/19 01:55:17;;;;;;;0.50;0.50;;;;;;;5.39;88.64;96490.19;5301274;26;20038;-61
2024/04/19 01:57:44;;;;;;;0.50;0.50;;;;;;;5.38;89.39;96483.13;5301628;27;20022;-60
2024/04/19 02:00:12;;;;;;;0.50;0.50;;;;;;;5.40;89.45;96485.50;5302582;26;20001;-60
2024/04/19 02:02:39;;;;;;;0.50;0.50;;;;;;;5.40;89.35;96480.03;5303441;26;20478;-61
2024/04/19 02:05:06;;;;;;;0.45;0.45;;;;;;;5.26;89.14;96479.63;5302484;26;20010;-60
2024/04/19 02:07:33;;;;;;;0.50;0.50;;;;;;;5.28;88.48;96478.13;5301487;27;20033;-61
2024/04/19 02:09:59;;;;;;;0.40;0.40;;;;;;;4.70;89.65;96421.19;5302593;26;20377;-61
2024/04/19 02:12:26;;;;;;;0.40;0.40;;;;;;;5.12;89.15;96484.72;5302912;26;20042;-63
2024/04/19 02:14:53;;;;;;;0.40;0.40;;;;;;;5.07;89.04;96495.94;5302884;26;20582;-61
2024/04/19 02:17:20;;;;;;;0.40;0.40;;;;;;;5.15;88.52;96495.00;5302864;26;20001;-60
2024/04/19 02:19:47;;;;;;;0.40;0.40;;;;;;;5.02;88.46;96496.19;5302348;26;20002;-60
2024/04/19 02:22:14;;;;;;;0.50;0.50;;;;;;;4.51;90.19;96454.72;5302850;26;20001;-61
2024/04/19 02:24:41;;;;;;;0.50;0.50;;;;;;;4.68;91.12;96452.84;5302414;26;20380;-62
2024/04/19 02:30:51;;;;;;;0.40;0.40;;;;;;;2.83;91.09;96143.56;5302906;26;20079;-64
2024/04/19 02:32:40;;;;;;;0.50;0.50;;;;;;;5.05;89.36;96496.28;5303220;26;20025;-61
2024/04/19 02:35:07;;;;;;;0.45;0.45;;;;;;;4.95;89.27;96490.50;5302668;26;20483;-60
2024/04/19 02:37:34;;;;;;;0.47;0.47;;;;;;;5.03;89.32;96486.78;5305544;26;20084;-60
2024/04/19 02:40:01;;;;;;;0.40;0.40;;;;;;;4.98;88.71;96489.81;5305313;26;20042;-60
2024/04/19 02:42:28;;;;;;;0.50;0.50;;;;;;;5.01;87.83;96494.59;5310461;26;20009;-61
2024/04/19 02:44:55;;;;;;;0.50;0.50;;;;;;;4.90;87.80;96504.47;5339560;26;20023;-61
2024/04/19 02:47:22;;;;;;;0.50;0.50;;;;;;;4.63;89.44;96500.53;5337965;26;19997;-63
2024/04/19 02:49:49;;;;;;;0.40;0.40;;;;;;;3.78;89.95;96365.50;5340133;26;20020;-59
2024/04/19 02:52:16;;;;;;;0.40;0.40;;;;;;;4.62;91.02;96494.22;5339768;26;20016;-60
2024/04/19 02:54:43;;;;;;;0.40;0.40;;;;;;;3.83;92.57;96389.94;5315319;26;20460;-60
2024/04/19 02:57:10;;;;;;;0.50;0.50;;;;;;;3.82;92.58;96355.47;5305441;26;20540;-60
2024/04/19 02:59:37;;;;;;;0.50;0.50;;;;;;;4.44;93.01;96475.63;5305848;26;20013;-60
2024/04/19 03:02:04;;;;;;;0.40;0.40;;;;;;;4.42;94.19;96451.31;5304060;27;20013;-61
2024/04/19 03:04:30;;;;;;;0.40;0.40;;;;;;;4.62;93.51;96494.22;5306195;26;20006;-61
2024/04/19 03:06:57;;;;;;;0.40;0.40;;;;;;;4.52;92.25;96502.91;5304062;27;20075;-62
2024/04/19 03:09:24;;;;;;;0.40;0.40;;;;;;;3.92;91.26;96382.38;5305109;26;20461;-62
2024/04/19 03:11:51;;;;;;;0.40;0.40;;;;;;;4.41;90.58;96504.53;5303579;27;20658;-61
2024/04/19 03:14:22;;;;;;;0.43;0.43;;;;;;;4.28;91.74;96472.78;5303495;26;20001;-63
2024/04/19 03:16:51;;;;;;;0.40;0.40;;;;;;;4.55;92.16;96496.75;5305090;26;20327;-61
2024/04/19 03:19:18;;;;;;;0.40;0.40;;;;;;;4.15;92.17;96446.53;5305185;26;20010;-61
2024/04/19 03:21:45;;;;;;;0.50;0.50;;;;;;;4.64;91.94;96502.09;5303824;26;20061;-60
2024/04/19 03:24:12;;;;;;;0.40;0.40;;;;;;;3.65;91.04;96341.22;5304999;26;20450;-60
2024/04/19 03:26:39;;;;;;;0.40;0.40;;;;;;;4.56;91.46;96501.09;5303209;27;20010;-61
2024/04/19 03:29:06;;;;;;;0.40;0.40;;;;;;;4.51;91.66;96515.03;5304831;26;20014;-61
2024/04/19 03:31:33;;;;;;;0.40;0.40;;;;;;;4.36;90.69;96469.13;5304983;26;20002;-61
2024/04/19 03:33:59;;;;;;;0.40;0.40;;;;;;;4.45;90.37;96494.47;5304587;26;20051;-60
2024/04/19 03:36:27;;;;;;;0.40;0.40;;;;;;;4.53;90.38;96515.50;5305037;26;20013;-60
2024/04/19 03:38:54;;;;;;;0.40;0.40;;;;;;;4.45;89.91;96521.91;5304293;26;20012;-60
2024/04/19 03:41:20;;;;;;;0.40;0.40;;;;;;;4.09;90.50;96469.84;5305073;26;20478;-61
2024/04/19 03:46:33;;;;;;;0.40;0.40;;;;;;;4.23;91.54;96519.63;5339343;26;20005;-61
2024/04/19 03:49:00;;;;;;;0.50;0.50;;;;;;;4.14;92.35;96521.66;5338325;26;20017;-63
2024/04/19 03:51:27;;;;;;;0.30;0.30;;;;;;;4.37;91.53;96520.06;5339656;26;20016;-63
2024/04/19 03:53:54;;;;;;;0.40;0.40;;;;;;;4.46;92.16;96528.97;5337676;26;20082;-60
2024/04/19 03:56:21;;;;;;;0.40;0.40;;;;;;;4.43;92.69;96529.66;5339426;26;20029;-60
2024/04/19 03:58:51;;;;;;;0.40;0.40;;;;;;;4.00;93.20;96455.44;5336785;26;20075;-60
2024/04/19 04:01:19;;;;;;;0.40;0.40;;;;;;;4.63;93.02;96531.47;5338897;26;20344;-60
2024/04/19 04:03:45;;;;;;;0.40;0.40;;;;;;;4.79;92.99;96525.28;5337126;26;20029;-60
2024/04/19 04:06:12;;;;;;;0.40;0.40;;;;;;;4.82;92.39;96530.09;5337314;26;20420;-60
2024/04/19 04:08:39;;;;;;;0.40;0.40;;;;;;;4.48;92.01;96485.56;5338242;26;20154;-61
2024/04/19 04:11:11;;;;;;;0.40;0.40;;;;;;;3.03;91.81;96226.63;5338954;26;20001;-60
2024/04/19 04:13:41;;;;;;;0.43;0.43;;;;;;;5.22;90.82;96550.91;5338642;26;20020;-60
2024/04/19 04:16:09;;;;;;;0.50;0.50;;;;;;;5.36;89.70;96578.00;5338578;26;20504;-60
2024/04/19 04:18:36;;;;;;;0.40;0.40;;;;;;;4.72;87.82;96442.78;5338589;26;20031;-61
2024/04/19 04:21:03;;;;;;;0.40;0.40;;;;;;;5.41;86.89;96553.00;5336971;26;20033;-61
2024/04/19 04:23:31;;;;;;;0.50;0.50;;;;;;;4.95;86.80;96463.84;5338445;26;20001;-61
2024/04/19 04:25:58;;;;;;;0.50;0.50;;;;;;;4.28;87.76;96354.91;5336557;26;20011;-59
2024/04/19 04:28:25;;;;;;;0.50;0.50;;;;;;;5.29;88.31;96495.41;5338392;26;20016;-60
2024/04/19 04:30:52;;;;;;;0.50;0.50;;;;;;;5.77;86.58;96561.13;5338542;26;20574;-60
2024/04/19 04:33:19;;;;;;;0.50;0.50;;;;;;;5.85;86.62;96569.22;5336639;26;20124;-60
2024/04/19 04:35:46;;;;;;;0.50;0.50;;;;;;;5.44;86.24;96486.41;5338339;26;20000;-62
2024/04/19 04:38:13;;;;;;;0.50;0.50;;;;;;;6.07;85.79;96565.06;5336220;26;20008;-62
2024/04/19 04:40:40;;;;;;;0.50;0.50;;;;;;;5.63;86.19;96500.25;5336723;26;20106;-60
2024/04/19 04:43:07;;;;;;;0.50;0.50;;;;;;;6.37;85.08;96569.00;5336823;26;20489;-60
2024/04/19 04:45:34;;;;;;;0.57;0.57;;;;;;;6.12;83.52;96523.56;5336324;26;20397;-60
2024/04/19 04:48:01;;;;;;;0.50;0.50;;;;;;;4.02;83.71;96176.44;5335990;26;20016;-62
2024/04/19 04:50:28;;;;;;;0.50;0.50;;;;;;;6.57;83.12;96581.72;5328652;26;20001;-60
2024/04/19 04:53:01;;;;;;;0.50;0.50;;;;;;;6.83;82.51;96581.94;5304031;26;20002;-62
2024/04/19 04:55:30;;;;;;;0.60;0.60;;;;;;;6.95;82.16;96579.09;5337061;26;20024;-61
2024/04/19 04:57:57;;;;;;;0.55;0.55;;;;;;;6.00;80.64;96420.03;5336440;26;20017;-59
2024/04/19 05:00:28;;;;;;;0.52;0.52;;;;;;;7.03;80.20;96574.53;5336478;26;20013;-60
2024/04/19 05:02:57;;;;;;;0.50;0.50;;;;;;;6.80;81.19;96527.59;5336519;26;20569;-59
2024/04/19 05:05:24;;;;;;;0.60;0.60;;;;;;;6.64;80.95;96480.06;5337756;26;20017;-60
2024/04/19 05:07:51;;;;;;;0.60;0.60;;;;;;;7.44;80.49;96580.19;5337987;26;20036;-60
2024/04/19 05:10:19;;;;;;;0.60;0.60;;;;;;;6.77;79.16;96439.44;5338367;26;20020;-60
2024/04/19 05:12:46;;;;;;;0.60;0.60;;;;;;;7.56;79.49;96532.41;5336606;26;20020;-60
2024/04/19 05:15:14;;;;;;;0.70;0.70;;;;;;;8.01;77.78;96581.34;5337728;26;20478;-59
2024/04/19 05:17:42;;;;;;;0.60;0.60;;;;;;;7.90;76.84;96558.28;5336079;26;20005;-60
2024/04/19 05:20:10;;;;;;;0.70;0.70;;;;;;;8.05;76.56;96587.69;5336481;26;20005;-67
2024/04/19 05:22:37;;;;;;;0.63;0.63;;;;;;;8.25;77.06;96581.03;5333583;26;20352;-67
2024/04/19 05:25:06;;;;;;;0.70;0.70;;;;;;;3.86;75.66;96030.44;5334336;26;20001;-67
2024/04/19 05:27:33;;;;;;;0.70;0.70;;;;;;;8.47;74.62;96591.28;5335085;26;20012;-68
2024/04/19 05:30:01;;;;;;;0.70;0.70;;;;;;;8.40;74.73;96588.38;5332031;26;20015;-75
2024/04/19 05:32:28;;;;;;;0.70;0.70;;;;;;;8.95;72.21;96593.28;5331088;26;20005;-58
2024/04/19 05:34:55;;;;;;;0.70;0.70;;;;;;;8.59;73.41;96530.38;5308654;26;20448;-64
2024/04/19 05:37:21;;;;;;;0.70;0.70;;;;;;;8.57;72.17;96505.91;5298841;27;20464;-61
2024/04/19 05:39:48;;;;;;;0.65;0.65;;;;;;;8.61;72.30;96494.91;5321795;26;20007;-75
2024/04/19 05:42:16;;;;;;;0.70;0.70;;;;;;;8.36;71.20;96416.47;5332699;26;20006;-69
2024/04/19 05:44:43;;;;;;;0.70;0.70;;;;;;;9.01;71.32;96508.91;5335094;26;20456;-71
2024/04/19 05:47:09;;;;;;;0.70;0.70;;;;;;;9.73;69.85;96596.00;5336944;26;20005;-61
2024/04/19 05:49:36;;;;;;;0.80;0.80;;;;;;;9.84;68.87;96585.88;5335787;26;20012;-62
2024/04/19 05:52:03;;;;;;;0.80;0.80;;;;;;;9.84;68.27;96580.34;5337024;26;20009;-70
2024/04/19 05:54:30;;;;;;;0.75;0.75;;;;;;;10.33;67.74;96608.59;5335872;26;20028;-74
2024/04/19 05:57:00;;;;;;;0.80;0.80;;;;;;;10.48;65.47;96599.25;5311269;26;20005;-74
2024/04/19 05:59:36;;;;;;;0.80;0.80;;;;;;;9.88;64.66;96476.03;5301892;26;20014;-68
2024/04/19 06:02:03;;;;;;;0.82;0.82;;;;;;;10.94;64.60;96596.13;5305961;26;19997;-60
2024/04/19 06:04:30;;;;;;;0.80;0.80;;;;;;;11.30;62.89;96611.84;5337126;26;20012;-61
2024/04/19 06:06:57;;;;;;;0.90;0.90;;;;;;;11.12;62.06;96580.41;5328517;26;20002;-70
2024/04/19 06:09:24;;;;;;;0.82;0.82;;;;;;;11.62;61.76;96601.75;5336514;26;20001;-68
2024/04/19 06:11:51;;;;;;;0.90;0.90;;;;;;;11.13;62.92;96584.81;5336441;26;20333;-60
2024/04/19 06:14:18;;;;;;;0.90;0.90;;;;;;;11.60;63.14;96588.25;5336840;26;20008;-62
2024/04/19 06:16:45;;;;;;;0.90;0.90;;;;;;;11.99;61.31;96610.69;5335938;26;20004;-60
2024/04/19 07:35:06;;;;;;;0.80;0.80;;;;;;;17.41;44.79;96595.09;5423036;26;20424;-66
2024/04/19 07:37:33;;;;;;;0.70;0.70;;;;;;;16.88;43.86;96595.16;5423467;26;20454;-66
2024/04/19 07:40:00;;;;;;;0.70;0.70;;;;;;;15.10;48.64;96596.72;5423788;26;20508;-66
2024/04/19 07:42:32;;;;;;;0.70;0.70;;;;;;;15.21;46.98;96549.97;5423882;26;20830;-57
2024/04/19 07:44:59;;;;;;;0.65;0.65;;;;;;;15.17;46.68;96596.66;5424159;26;20007;-59
2024/04/19 07:47:27;;;;;;;0.65;0.65;;;;;;;15.11;47.46;96598.31;5423800;26;20022;-59
2024/04/19 07:49:55;;;;;;;0.70;0.70;;;;;;;15.40;47.73;96590.50;5423776;26;20463;-58
2024/04/19 07:52:22;;;;;;;0.60;0.60;;;;;;;14.45;47.33;96527.06;5423496;26;20004;-57
2024/04/19 07:54:51;;;;;;;0.60;0.60;;;;;;;14.64;49.46;96585.88;5423573;26;20000;-57
2024/04/19 07:57:18;;;;;;;0.60;0.60;;;;;;;15.46;46.31;96583.28;5411856;26;20051;-57
2024/04/19 07:59:45;;;;;;;0.70;0.70;;;;;;;15.91;46.49;96573.63;5368170;26;20009;-57
2024/04/19 08:02:12;;;;;;;0.68;0.68;;;;;;;15.60;45.75;96586.72;5350856;26;20001;-57
2024/04/19 08:04:39;;;;;;;0.70;0.70;;;;;;;15.79;45.56;96583.31;5352933;26;20073;-57
2024/04/19 08:07:06;;;;;;;0.70;0.70;;;;;;;15.43;44.54;96584.91;5353296;26;20012;-56
2024/04/19 08:09:37;;;;;;;0.60;0.60;;;;;;;15.29;45.88;96586.97;5353089;26;20482;-57
2024/04/19 08:12:06;;;;;;;0.60;0.60;;;;;;;15.39;45.61;96503.22;5352956;26;20299;-56
2024/04/19 08:14:33;;;;;;;0.70;0.70;;;;;;;16.71;40.53;96571.03;5353404;26;20360;-58
2024/04/19 08:17:00;;;;;;;0.70;0.70;;;;;;;16.79;39.32;96570.50;5349488;26;20015;-57
2024/04/19 08:19:28;;;;;;;0.70;0.70;;;;;;;16.96;39.22;96568.66;5352345;26;20019;-58
2024/04/19 08:21:55;;;;;;;0.70;0.70;;;;;;;17.38;39.66;96559.56;5352604;26;20043;-57
2024/04/19 08:24:22;;;;;;;0.70;0.70;;;;;;;14.97;39.77;96166.09;5353243;26;20005;-57
2024/04/19 08:26:49;;;;;;;0.68;0.68;;;;;;;16.85;41.98;96540.81;5354547;26;20013;-57
2024/04/19 08:29:16;;;;;;;0.80;0.80;;;;;;;17.28;41.54;96550.13;5353478;26;20015;-58
2024/04/19 08:31:55;;;;;;;0.70;0.70;;;;;;;16.82;40.75;96498.94;5354192;26;20001;-57
2024/04/19 08:34:22;;;;;;;0.70;0.70;;;;;;;16.81;40.64;96548.50;5348230;26;20008;-58
2024/04/19 08:36:49;;;;;;;0.73;0.73;;;;;;;15.43;43.22;96561.78;5339438;26;20104;-57
2024/04/19 08:39:16;;;;;;;0.70;0.70;;;;;;;16.19;42.04;96545.34;5339495;26;20005;-56
2024/04/19 08:41:47;;;;;;;0.70;0.70;;;;;;;16.63;41.55;96543.16;5321535;26;19998;-56
2024/04/19 08:44:16;;;;;;;0.70;0.70;;;;;;;16.87;42.27;96537.59;5305014;26;20005;-67
2024/04/19 08:46:44;;;;;;;0.70;0.70;;;;;;;16.78;42.95;96531.75;5304962;26;20508;-65
2024/04/19 08:49:14;;;;;;;0.70;0.70;;;;;;;16.47;42.54;96534.59;5302026;27;20021;-65
2024/04/19 08:51:41;;;;;;;0.70;0.70;;;;;;;16.05;42.57;96540.75;5304623;26;20068;-58
2024/04/19 08:54:31;;;;;;;0.70;0.70;;;;;;;16.50;42.00;96483.44;5303900;26;20005;-58
2024/04/19 08:56:59;;;;;;;0.70;0.70;;;;;;;17.09;40.31;96533.25;5357819;26;20006;-59
2024/04/19 08:59:30;;;;;;;0.70;0.70;;;;;;;16.75;40.36;96487.84;5304300;26;20622;-57
2024/04/19 09:01:57;;;;;;;0.70;0.70;;;;;;;16.54;40.31;96534.53;5303093;26;20017;-57
2024/04/19 09:04:24;;;;;;;0.70;0.70;;;;;;;15.81;41.91;96505.50;5301543;27;20041;-60
2024/04/19 09:06:52;;;;;;;0.70;0.70;;;;;;;16.22;40.42;96533.31;5300565;27;20452;-58
2024/04/19 09:09:19;;;;;;;0.70;0.70;;;;;;;16.08;39.73;96484.03;5301501;26;20010;-57
2024/04/19 09:11:49;;;;;;;0.68;0.68;;;;;;;16.59;42.07;96536.84;5301761;27;20050;-57
2024/04/19 09:14:16;;;;;;;0.70;0.70;;;;;;;15.84;39.79;96457.19;5327089;26;20033;-58
2024/04/19 09:16:43;;;;;;;0.70;0.70;;;;;;;15.22;39.62;96434.41;5301271;27;20042;-60
2024/04/19 09:19:10;;;;;;;0.80;0.80;;;;;;;16.14;39.98;96496.31;5300933;27;20016;-57
2024/04/19 09:21:37;;;;;;;0.70;0.70;;;;;;;16.67;39.45;96542.31;5308063;26;20448;-60
2024/04/19 09:24:09;;;;;;;0.65;0.65;;;;;;;16.18;38.48;96508.25;5335296;26;20001;-57
2024/04/19 09:26:36;;;;;;;0.70;0.70;;;;;;;16.77;39.68;96524.59;5334451;26;19997;-57
2024/04/19 09:29:05;;;;;;;0.70;0.70;;;;;;;16.06;37.27;96452.91;5333746;26;20005;-57
2024/04/19 09:31:32;;;;;;;0.70;0.70;;;;;;;15.96;39.21;96437.09;5335501;26;20450;-57
2024/04/19 09:33:59;;;;;;;0.73;0.73;;;;;;;15.42;39.38;96470.88;5335313;26;20016;-58
2024/04/19 09:36:26;;;;;;;0.60;0.60;;;;;;;15.54;40.24;96518.59;5335762;26;20004;-56
2024/04/19 09:38:55;;;;;;;0.60;0.60;;;;;;;16.06;40.11;96519.97;5336377;26;20001;-56
2024/04/19 09:41:24;;;;;;;0.70;0.70;;;;;;;16.39;40.84;96493.94;5338423;26;20013;-57
2024/04/19 09:43:51;;;;;;;0.60;0.60;;;;;;;16.52;39.48;96508.97;5336692;26;20009;-57
2024/04/19 09:46:31;;;;;;;0.70;0.70;;;;;;;16.20;39.14;96516.22;5337594;26;20001;-59
2024/04/19 09:49:03;;;;;;;0.60;0.60;;;;;;;16.52;39.96;96503.38;5338111;26;20553;-56
2024/04/19 09:51:46;;;;;;;0.80;0.80;;;;;;;16.96;39.19;96499.47;5338648;26;20015;-57
2024/04/19 09:54:15;;;;;;;0.70;0.70;;;;;;;17.11;38.79;96486.03;5337993;26;20001;-57
2024/04/19 09:56:56;;;;;;;0.70;0.70;;;;;;;15.74;38.90;96502.03;5336590;26;20019;-57
2024/04/19 09:59:24;;;;;;;0.70;0.70;;;;;;;15.83;38.53;96499.50;5337977;26;20468;-60
2024/04/19 10:01:52;;;;;;;0.70;0.70;;;;;;;16.21;38.02;96439.53;5336157;26;20446;-57
2024/04/19 10:04:23;;;;;;;0.65;0.65;;;;;;;15.81;38.52;96496.34;5337908;26;20078;-57
2024/04/19 10:06:52;;;;;;;0.70;0.70;;;;;;;16.21;39.34;96490.63;5336556;26;20082;-58
2024/04/19 10:09:25;;;;;;;0.70;0.70;;;;;;;15.79;40.09;96493.19;5336002;26;20009;-59
2024/04/19 10:11:56;;;;;;;0.70;0.70;;;;;;;16.42;40.01;96445.56;5338158;26;20016;-58
2024/04/19 10:14:23;;;;;;;0.77;0.77;;;;;;;17.18;39.65;96483.13;5337202;26;20016;-60
2024/04/19 10:16:50;;;;;;;0.65;0.65;;;;;;;17.34;39.79;96481.22;5329217;26;20393;-58
2024/04/19 10:19:17;;;;;;;0.70;0.70;;;;;;;17.55;38.74;96482.84;5344329;26;20592;-58
2024/04/19 10:21:44;;;;;;;0.70;0.70;;;;;;;17.73;37.69;96483.31;5337813;26;20467;-59
2024/04/19 10:24:16;;;;;;;0.70;0.70;;;;;;;17.75;38.13;96484.44;5336295;26;19997;-58
2024/04/19 10:26:53;;;;;;;0.80;0.80;;;;;;;17.83;38.63;96479.53;5325859;26;20009;-59
2024/04/19 10:29:22;;;;;;;0.80;0.80;;;;;;;17.91;37.80;96478.13;5302388;26;20075;-57
2024/04/19 10:31:51;;;;;;;0.77;0.77;;;;;;;17.84;38.08;96479.09;5326320;26;20033;-57
2024/04/19 10:34:18;;;;;;;0.80;0.80;;;;;;;17.99;37.62;96476.75;5334694;26;20012;-58
2024/04/19 10:36:46;;;;;;;0.70;0.70;;;;;;;17.52;37.46;96486.53;5340523;26;20557;-57
2024/04/19 10:39:13;;;;;;;0.70;0.70;;;;;;;17.26;38.78;96429.38;5349590;26;20012;-57
2024/04/19 10:41:52;;;;;;;0.70;0.70;;;;;;;17.62;36.70;96479.94;5336010;26;20027;-73
2024/04/19 10:44:20;;;;;;;0.80;0.80;;;;;;;17.40;37.49;96484.31;5321000;26;20009;-56
2024/04/19 10:46:49;;;;;;;0.70;0.70;;;;;;;16.72;37.36;96488.72;5332043;26;20024;-55
2024/04/19 10:49:24;;;;;;;0.70;0.70;;;;;;;15.69;39.70;96477.34;5325831;26;20439;-73
2024/04/19 10:51:52;;;;;;;0.68;0.68;;;;;;;15.40;39.30;96485.25;5331890;26;20074;-56
2024/04/19 10:54:19;;;;;;;0.70;0.70;;;;;;;15.47;39.43;96487.16;5320833;26;20002;-74
2024/04/19 10:56:47;;;;;;;0.60;0.60;;;;;;;16.18;39.41;96471.91;5334679;26;20514;-58
2024/04/19 10:59:14;;;;;;;0.80;0.80;;;;;;;16.29;39.13;96478.16;5334263;26;20020;-73
2024/04/19 11:01:42;;;;;;;0.70;0.70;;;;;;;16.26;39.89;96495.75;5336089;26;20033;-60
2024/04/19 11:04:11;;;;;;;0.70;0.70;;;;;;;16.20;39.45;96471.50;5391411;26;20471;-59
2024/04/19 11:06:39;;;;;;;0.70;0.70;;;;;;;16.94;40.32;96475.94;5336229;26;20021;-70
2024/04/19 11:09:07;;;;;;;0.70;0.70;;;;;;;17.27;39.35;96469.38;5326521;26;20006;-73
2024/04/19 11:11:37;;;;;;;0.80;0.80;;;;;;;17.44;38.90;96468.25;5331221;26;20004;-61
2024/04/19 11:14:11;;;;;;;0.70;0.70;;;;;;;17.11;38.56;96404.88;5335160;26;20001;-57
2024/04/19 11:16:38;;;;;;;0.80;0.80;;;;;;;17.57;38.59;96449.63;5385537;26;20045;-70
2024/04/19 11:19:05;;;;;;;0.70;0.70;;;;;;;17.77;37.99;96459.59;5332509;26;20012;-57
2024/04/19 11:21:33;;;;;;;0.63;0.63;;;;;;;17.43;38.68;96428.25;5306873;26;20026;-74
2024/04/19 11:24:00;;;;;;;0.70;0.70;;;;;;;17.49;38.52;96392.16;5311478;26;20009;-56
2024/04/19 11:26:27;;;;;;;0.70;0.70;;;;;;;17.86;38.84;96411.41;5333463;26;20004;-57
2024/04/19 11:28:55;;;;;;;0.70;0.70;;;;;;;18.06;39.22;96468.22;5332061;26;20358;-57
2024/04/19 11:31:22;;;;;;;0.70;0.70;;;;;;;18.12;38.48;96463.66;5333720;26;20007;-69
2024/04/19 11:33:55;;;;;;;0.80;0.80;;;;;;;18.25;38.31;96460.97;5331605;26;20016;-57
2024/04/19 11:36:23;;;;;;;;;;;;;;;18.51;38.03;96458.00;5331627;26;19997;-67
2024/04/19 11:38:50;;;;;;;0.80;0.80;;;;;;;18.36;38.63;96453.13;5331760;26;19932;-56
2024/04/19 11:41:17;;;;;;;0.70;0.70;;;;;;;18.55;39.04;96458.72;5329337;26;20045;-56
2024/04/19 11:43:44;;;;;;;0.77;0.77;;;;;;;18.58;38.59;96455.03;5328959;26;20013;-57
2024/04/19 11:46:19;;;;;;;0.80;0.80;;;;;;;18.66;38.00;96450.84;5331140;26;20005;-67
2024/04/19 11:48:46;;;;;;;0.70;0.70;;;;;;;18.51;37.65;96384.28;5333937;26;20005;-59
2024/04/19 11:51:14;;;;;;;0.73;0.73;;;;;;;18.49;37.54;96362.31;5333915;26;20617;-57
2024/04/19 11:53:41;;;;;;;0.80;0.80;;;;;;;18.15;37.48;96445.97;5334124;26;20024;-56
2024/04/19 11:56:07;;;;;;;0.80;0.80;;;;;;;18.48;37.47;96446.88;5332814;26;20033;-68
2024/04/19 11:58:35;;;;;;;0.70;0.70;;;;;;;18.35;37.14;96393.47;5335336;26;20001;-62
2024/04/19 12:01:02;;;;;;;0.80;0.80;;;;;;;18.82;37.58;96441.63;5317190;26;20008;-58
2024/04/19 12:03:30;;;;;;;0.80;0.80;;;;;;;18.59;38.06;96414.53;5333485;26;20020;-69
2024/04/19 12:05:58;;;;;;;0.80;0.80;;;;;;;18.59;37.70;96394.88;5334309;26;20000;-74
2024/04/19 12:08:25;;;;;;;0.80;0.80;;;;;;;19.11;37.52;96434.84;5333171;26;20032;-67
2024/04/19 12:10:52;;;;;;;0.88;0.88;;;;;;;19.43;35.86;96432.00;5334047;26;20577;-58
2024/04/19 12:13:19;;;;;;;0.80;0.80;;;;;;;19.40;35.86;96429.28;5336022;26;20005;-58
2024/04/19 12:16:06;;;;;;;0.80;0.80;;;;;;;19.20;37.17;96406.94;5335776;26;20000;-57
2024/04/19 12:18:53;;;;;;;0.80;0.80;;;;;;;19.22;36.62;96421.31;5337024;26;20019;-57
2024/04/19 12:21:20;;;;;;;0.70;0.70;;;;;;;19.24;36.59;96409.63;5338172;26;20659;-72
2024/04/19 12:23:48;;;;;;;0.82;0.82;;;;;;;19.63;36.02;96402.97;5333538;26;20024;-74
2024/04/19 12:26:17;;;;;;;0.80;0.80;;;;;;;19.88;36.35;96398.22;5335746;26;20013;-58
2024/04/19 12:28:45;;;;;;;0.82;0.82;;;;;;;19.00;37.34;96411.88;5337923;26;20005;-74
2024/04/19 12:31:22;;;;;;;0.80;0.80;;;;;;;18.50;37.33;96405.94;5281896;26;20009;-69
2024/04/19 12:33:51;;;;;;;0.80;0.80;;;;;;;17.46;38.13;96393.03;5276220;27;20422;-58
2024/04/19 12:36:18;;;;;;;0.73;0.73;;;;;;;17.72;38.52;96389.31;5268993;27;19999;-72
2024/04/19 12:38:45;;;;;;;0.80;0.80;;;;;;;18.57;37.40;96388.94;5268751;27;20121;-57
2024/04/19 12:41:12;;;;;;;0.80;0.80;;;;;;;18.34;37.01;96397.47;5271148;27;20002;-72
2024/04/19 12:43:39;;;;;;;0.70;0.70;;;;;;;16.99;38.91;96335.56;5268981;27;20025;-56
2024/04/19 12:46:06;;;;;;;0.80;0.80;;;;;;;17.63;38.99;96378.66;5270207;27;20014;-75
2024/04/19 12:48:33;;;;;;;0.70;0.70;;;;;;;16.98;39.92;96378.75;5267776;27;20002;-71
2024/04/19 12:51:00;;;;;;;0.80;0.80;;;;;;;17.70;38.17;96358.13;5264931;27;19998;-67
2024/04/19 12:53:28;;;;;;;0.80;0.80;;;;;;;15.09;39.82;95948.00;5262648;27;20025;-73
2024/04/19 12:55:55;;;;;;;0.80;0.80;;;;;;;18.20;38.10;96364.16;5303490;27;20009;-71
2024/04/19 12:58:22;;;;;;;0.80;0.80;;;;;;;17.46;38.85;96303.44;5300351;27;20002;-69
2024/04/19 13:00:49;;;;;;;0.60;0.60;;;;;;;18.02;39.55;96358.16;5287344;26;20735;-67
2024/04/19 13:03:16;;;;;;;0.70;0.70;;;;;;;18.31;38.82;96345.06;5287128;27;19998;-71
2024/04/19 13:05:43;;;;;;;0.75;0.75;;;;;;;18.69;38.13;96362.97;5276491;27;20080;-67